sensor_id;sensor_type;location;lat;lon;timestamp;P1;durP1;ratioP1;P2;durP2;ratioP2
34481;SDS011;20720;48.886;9.388;2023-10-13T00:00:21;20.10;;;7.75;;
34481;SDS011;20720;48.886;9.388;2023-10-13T00:02:55;13.00;;;7.38;;
34481;SDS011;20720;48.886;9.388;2023-10-13T00:05:29;12.38;;;7.10;;
34481;SDS011;20720;48.886;9.388;2023-10-13T00:07:56;12.93;;;7.53;;
34481;SDS011;20720;48.886;9.388;2023-10-13T00:10:22;13.15;;;6.47;;
34481;SDS011;20720;48.886;9.388;2023-10-13T00:12:47;17.30;;;7.28;;
34481;SDS011;20720;48.886;9.388;2023-10-13T00:15:16;12.75;;;6.75;;
34481;SDS011;20720;48.886;9.388;2023-10-13T00:17:42;14.90;;;7.65;;
34481;SDS011;20720;48.886;9.388;2023-10-13T00:20:07;13.57;;;7.32;;
34481;SDS011;20720;48.886;9.388;2023-10-13T00:22:53;10.90;;;6.75;;
34481;SDS011;20720;48.886;9.388;2023-10-13T00:25:18;11.50;;;6.53;;
34481;SDS011;20720;48.886;9.388;2023-10-13T00:27:51;16.52;;;7.32;;
34481;SDS011;20720;48.886;9.388;2023-10-13T00:30:17;9.65;;;6.45;;
34481;SDS011;20720;48.886;9.388;2023-10-13T00:32:42;10.25;;;7.28;;
34481;SDS011;20720;48.886;9.388;2023-10-13T00:35:10;11.90;;;7.10;;
34481;SDS011;20720;48.886;9.388;2023-10-13T00:37:57;14.13;;;7.20;;
34481;SDS011;20720;48.886;9.388;2023-10-13T00:40:24;17.15;;;7.68;;
34481;SDS011;20720;48.886;9.388;2023-10-13T00:43:07;17.13;;;8.02;;
34481;SDS011;20720;48.886;9.388;2023-10-13T00:45:49;18.33;;;8.00;;
34481;SDS011;20720;48.886;9.388;2023-10-13T00:48:25;17.73;;;8.27;;
34481;SDS011;20720;48.886;9.388;2023-10-13T00:51:06;13.35;;;8.05;;
34481;SDS011;20720;48.886;9.388;2023-10-13T00:53:36;14.57;;;8.02;;
34481;SDS011;20720;48.886;9.388;2023-10-13T00:56:05;14.18;;;8.55;;
34481;SDS011;20720;48.886;9.388;2023-10-13T00:58:34;15.60;;;7.68;;
34481;SDS011;20720;48.886;9.388;2023-10-13T01:01:03;16.13;;;7.43;;
34481;SDS011;20720;48.886;9.388;2023-10-13T01:03:47;11.48;;;6.85;;
34481;SDS011;20720;48.886;9.388;2023-10-13T01:06:17;13.95;;;7.93;;
34481;SDS011;20720;48.886;9.388;2023-10-13T01:08:47;10.48;;;6.97;;
34481;SDS011;20720;48.886;9.388;2023-10-13T01:11:17;16.17;;;7.82;;
34481;SDS011;20720;48.886;9.388;2023-10-13T01:13:43;13.45;;;7.25;;
34481;SDS011;20720;48.886;9.388;2023-10-13T01:16:09;12.98;;;7.93;;
34481;SDS011;20720;48.886;9.388;2023-10-13T01:18:35;14.07;;;8.00;;
34481;SDS011;20720;48.886;9.388;2023-10-13T01:21:12;12.77;;;7.95;;
34481;SDS011;20720;48.886;9.388;2023-10-13T01:23:40;11.45;;;7.20;;
34481;SDS011;20720;48.886;9.388;2023-10-13T01:26:07;14.95;;;7.97;;
34481;SDS011;20720;48.886;9.388;2023-10-13T01:28:34;13.00;;;7.60;;
34481;SDS011;20720;48.886;9.388;2023-10-13T01:31:09;18.00;;;7.97;;
34481;SDS011;20720;48.886;9.388;2023-10-13T01:33:41;14.85;;;7.53;;
34481;SDS011;20720;48.886;9.388;2023-10-13T01:36:06;10.85;;;7.28;;
34481;SDS011;20720;48.886;9.388;2023-10-13T01:38:33;12.93;;;7.40;;
34481;SDS011;20720;48.886;9.388;2023-10-13T01:41:00;13.90;;;8.07;;
34481;SDS011;20720;48.886;9.388;2023-10-13T01:43:29;13.07;;;7.65;;
34481;SDS011;20720;48.886;9.388;2023-10-13T01:45:55;17.58;;;7.50;;
34481;SDS011;20720;48.886;9.388;2023-10-13T01:48:20;18.83;;;7.70;;
34481;SDS011;20720;48.886;9.388;2023-10-13T01:50:46;12.30;;;7.65;;
34481;SDS011;20720;48.886;9.388;2023-10-13T01:53:20;13.00;;;7.32;;
34481;SDS011;20720;48.886;9.388;2023-10-13T01:55:47;18.30;;;7.50;;
34481;SDS011;20720;48.886;9.388;2023-10-13T01:58:15;15.23;;;7.50;;
34481;SDS011;20720;48.886;9.388;2023-10-13T02:00:41;16.92;;;7.90;;
34481;SDS011;20720;48.886;9.388;2023-10-13T02:03:08;15.65;;;8.00;;
34481;SDS011;20720;48.886;9.388;2023-10-13T02:08:12;14.77;;;7.30;;
34481;SDS011;20720;48.886;9.388;2023-10-13T02:13:16;13.82;;;7.85;;
34481;SDS011;20720;48.886;9.388;2023-10-13T02:15:45;15.00;;;7.80;;
34481;SDS011;20720;48.886;9.388;2023-10-13T02:18:16;13.48;;;7.90;;
34481;SDS011;20720;48.886;9.388;2023-10-13T02:21:06;12.80;;;7.20;;
34481;SDS011;20720;48.886;9.388;2023-10-13T02:23:37;11.95;;;8.30;;
34481;SDS011;20720;48.886;9.388;2023-10-13T02:26:25;12.40;;;7.55;;
34481;SDS011;20720;48.886;9.388;2023-10-13T02:28:57;13.38;;;8.57;;
34481;SDS011;20720;48.886;9.388;2023-10-13T02:31:25;14.85;;;8.10;;
34481;SDS011;20720;48.886;9.388;2023-10-13T02:33:52;13.88;;;7.60;;
34481;SDS011;20720;48.886;9.388;2023-10-13T02:36:18;12.10;;;7.90;;
34481;SDS011;20720;48.886;9.388;2023-10-13T02:38:47;11.65;;;7.30;;
34481;SDS011;20720;48.886;9.388;2023-10-13T02:41:16;12.75;;;8.23;;
34481;SDS011;20720;48.886;9.388;2023-10-13T02:43:53;13.23;;;8.02;;
34481;SDS011;20720;48.886;9.388;2023-10-13T02:46:19;13.65;;;7.95;;
34481;SDS011;20720;48.886;9.388;2023-10-13T02:48:47;13.68;;;8.15;;
34481;SDS011;20720;48.886;9.388;2023-10-13T02:51:18;14.00;;;8.50;;
34481;SDS011;20720;48.886;9.388;2023-10-13T02:53:50;12.57;;;8.13;;
34481;SDS011;20720;48.886;9.388;2023-10-13T02:56:17;13.52;;;7.68;;
34481;SDS011;20720;48.886;9.388;2023-10-13T02:58:46;11.68;;;8.60;;
34481;SDS011;20720;48.886;9.388;2023-10-13T03:01:18;14.52;;;8.07;;
34481;SDS011;20720;48.886;9.388;2023-10-13T03:03:45;12.77;;;8.15;;
34481;SDS011;20720;48.886;9.388;2023-10-13T03:06:15;10.57;;;7.07;;
34481;SDS011;20720;48.886;9.388;2023-10-13T03:08:41;13.20;;;7.78;;
34481;SDS011;20720;48.886;9.388;2023-10-13T03:11:08;12.93;;;7.55;;
34481;SDS011;20720;48.886;9.388;2023-10-13T03:13:34;13.80;;;7.35;;
34481;SDS011;20720;48.886;9.388;2023-10-13T03:16:00;11.93;;;7.80;;
34481;SDS011;20720;48.886;9.388;2023-10-13T03:18:25;12.07;;;7.20;;
34481;SDS011;20720;48.886;9.388;2023-10-13T03:20:51;11.85;;;7.00;;
34481;SDS011;20720;48.886;9.388;2023-10-13T03:23:21;13.00;;;7.05;;
34481;SDS011;20720;48.886;9.388;2023-10-13T03:25:48;11.43;;;7.68;;
34481;SDS011;20720;48.886;9.388;2023-10-13T03:28:20;9.68;;;6.55;;
34481;SDS011;20720;48.886;9.388;2023-10-13T03:30:48;13.63;;;7.20;;
34481;SDS011;20720;48.886;9.388;2023-10-13T03:33:17;14.32;;;7.63;;
34481;SDS011;20720;48.886;9.388;2023-10-13T03:35:51;11.30;;;7.30;;
34481;SDS011;20720;48.886;9.388;2023-10-13T03:38:19;12.48;;;7.00;;
34481;SDS011;20720;48.886;9.388;2023-10-13T03:40:46;17.20;;;7.25;;
34481;SDS011;20720;48.886;9.388;2023-10-13T03:43:15;14.00;;;7.63;;
34481;SDS011;20720;48.886;9.388;2023-10-13T03:45:48;14.65;;;8.55;;
34481;SDS011;20720;48.886;9.388;2023-10-13T03:48:17;11.27;;;7.38;;
34481;SDS011;20720;48.886;9.388;2023-10-13T03:50:50;13.82;;;7.40;;
34481;SDS011;20720;48.886;9.388;2023-10-13T03:53:38;13.25;;;7.82;;
34481;SDS011;20720;48.886;9.388;2023-10-13T03:56:18;10.63;;;7.40;;
34481;SDS011;20720;48.886;9.388;2023-10-13T03:58:56;11.65;;;7.28;;
34481;SDS011;20720;48.886;9.388;2023-10-13T04:01:25;13.40;;;7.10;;
34481;SDS011;20720;48.886;9.388;2023-10-13T04:04:00;12.27;;;7.50;;
34481;SDS011;20720;48.886;9.388;2023-10-13T04:06:34;14.43;;;7.82;;
34481;SDS011;20720;48.886;9.388;2023-10-13T04:09:18;13.00;;;7.30;;
34481;SDS011;20720;48.886;9.388;2023-10-13T04:14:29;11.05;;;6.63;;
34481;SDS011;20720;48.886;9.388;2023-10-13T04:17:24;13.43;;;7.68;;
34481;SDS011;20720;48.886;9.388;2023-10-13T04:19:53;17.88;;;8.52;;
34481;SDS011;20720;48.886;9.388;2023-10-13T04:22:35;13.75;;;7.20;;
34481;SDS011;20720;48.886;9.388;2023-10-13T04:28:11;13.10;;;7.40;;
34481;SDS011;20720;48.886;9.388;2023-10-13T04:30:38;14.70;;;7.65;;
34481;SDS011;20720;48.886;9.388;2023-10-13T04:33:13;16.00;;;8.25;;
34481;SDS011;20720;48.886;9.388;2023-10-13T04:38:53;12.25;;;7.78;;
34481;SDS011;20720;48.886;9.388;2023-10-13T04:43:58;16.00;;;7.60;;
34481;SDS011;20720;48.886;9.388;2023-10-13T04:46:30;13.05;;;7.45;;
34481;SDS011;20720;48.886;9.388;2023-10-13T04:49:11;12.95;;;7.30;;
34481;SDS011;20720;48.886;9.388;2023-10-13T04:51:56;12.88;;;7.90;;
34481;SDS011;20720;48.886;9.388;2023-10-13T04:54:26;14.15;;;7.45;;
34481;SDS011;20720;48.886;9.388;2023-10-13T04:56:58;16.33;;;7.88;;
34481;SDS011;20720;48.886;9.388;2023-10-13T04:59:42;11.93;;;7.13;;
34481;SDS011;20720;48.886;9.388;2023-10-13T05:02:25;13.30;;;6.90;;
34481;SDS011;20720;48.886;9.388;2023-10-13T05:05:00;14.05;;;7.93;;
34481;SDS011;20720;48.886;9.388;2023-10-13T05:07:45;15.77;;;8.50;;
34481;SDS011;20720;48.886;9.388;2023-10-13T05:10:29;17.88;;;7.95;;
34481;SDS011;20720;48.886;9.388;2023-10-13T05:13:14;12.55;;;7.70;;
34481;SDS011;20720;48.886;9.388;2023-10-13T05:15:58;14.10;;;7.38;;
34481;SDS011;20720;48.886;9.388;2023-10-13T05:18:42;12.88;;;7.40;;
34481;SDS011;20720;48.886;9.388;2023-10-13T05:21:26;14.13;;;7.25;;
34481;SDS011;20720;48.886;9.388;2023-10-13T05:24:12;14.07;;;7.78;;
34481;SDS011;20720;48.886;9.388;2023-10-13T05:26:55;12.05;;;7.28;;
34481;SDS011;20720;48.886;9.388;2023-10-13T05:29:40;11.25;;;7.25;;
34481;SDS011;20720;48.886;9.388;2023-10-13T05:32:24;11.50;;;7.57;;
34481;SDS011;20720;48.886;9.388;2023-10-13T05:35:09;13.07;;;8.15;;
34481;SDS011;20720;48.886;9.388;2023-10-13T05:37:53;15.70;;;7.47;;
34481;SDS011;20720;48.886;9.388;2023-10-13T05:40:38;13.27;;;7.70;;
34481;SDS011;20720;48.886;9.388;2023-10-13T05:43:23;12.77;;;7.38;;
34481;SDS011;20720;48.886;9.388;2023-10-13T05:46:06;12.18;;;7.65;;
34481;SDS011;20720;48.886;9.388;2023-10-13T05:48:50;14.07;;;7.40;;
34481;SDS011;20720;48.886;9.388;2023-10-13T05:51:22;16.70;;;7.63;;
34481;SDS011;20720;48.886;9.388;2023-10-13T05:53:57;12.95;;;7.30;;
34481;SDS011;20720;48.886;9.388;2023-10-13T05:56:41;9.02;;;5.88;;
34481;SDS011;20720;48.886;9.388;2023-10-13T05:59:29;10.40;;;6.63;;
34481;SDS011;20720;48.886;9.388;2023-10-13T06:02:14;11.40;;;6.88;;
34481;SDS011;20720;48.886;9.388;2023-10-13T06:05:02;12.40;;;7.60;;
34481;SDS011;20720;48.886;9.388;2023-10-13T06:07:46;11.85;;;6.43;;
34481;SDS011;20720;48.886;9.388;2023-10-13T06:10:30;10.80;;;6.85;;
34481;SDS011;20720;48.886;9.388;2023-10-13T06:13:14;15.38;;;7.00;;
34481;SDS011;20720;48.886;9.388;2023-10-13T06:15:58;24.95;;;7.03;;
34481;SDS011;20720;48.886;9.388;2023-10-13T06:18:42;16.35;;;7.25;;
34481;SDS011;20720;48.886;9.388;2023-10-13T06:21:26;14.55;;;7.20;;
34481;SDS011;20720;48.886;9.388;2023-10-13T06:24:10;11.73;;;6.50;;
34481;SDS011;20720;48.886;9.388;2023-10-13T06:26:54;15.75;;;6.32;;
34481;SDS011;20720;48.886;9.388;2023-10-13T06:29:38;14.30;;;6.82;;
34481;SDS011;20720;48.886;9.388;2023-10-13T06:32:03;16.63;;;6.43;;
34481;SDS011;20720;48.886;9.388;2023-10-13T06:34:35;9.37;;;6.37;;
34481;SDS011;20720;48.886;9.388;2023-10-13T06:37:19;18.33;;;7.50;;
34481;SDS011;20720;48.886;9.388;2023-10-13T06:39:50;12.50;;;6.80;;
34481;SDS011;20720;48.886;9.388;2023-10-13T06:42:17;15.07;;;6.78;;
34481;SDS011;20720;48.886;9.388;2023-10-13T06:44:44;18.65;;;7.32;;
34481;SDS011;20720;48.886;9.388;2023-10-13T06:47:11;12.95;;;6.80;;
34481;SDS011;20720;48.886;9.388;2023-10-13T06:49:38;13.45;;;6.60;;
34481;SDS011;20720;48.886;9.388;2023-10-13T06:52:05;17.38;;;7.10;;
34481;SDS011;20720;48.886;9.388;2023-10-13T06:54:31;13.52;;;7.60;;
34481;SDS011;20720;48.886;9.388;2023-10-13T06:56:58;26.17;;;8.05;;
34481;SDS011;20720;48.886;9.388;2023-10-13T06:59:24;14.82;;;6.93;;
34481;SDS011;20720;48.886;9.388;2023-10-13T07:01:51;20.50;;;7.43;;
34481;SDS011;20720;48.886;9.388;2023-10-13T07:04:17;13.18;;;6.93;;
34481;SDS011;20720;48.886;9.388;2023-10-13T07:06:43;13.25;;;7.05;;
34481;SDS011;20720;48.886;9.388;2023-10-13T07:09:13;17.73;;;6.95;;
34481;SDS011;20720;48.886;9.388;2023-10-13T07:11:59;14.50;;;7.03;;
34481;SDS011;20720;48.886;9.388;2023-10-13T07:14:26;14.80;;;7.80;;
34481;SDS011;20720;48.886;9.388;2023-10-13T07:16:55;18.27;;;7.57;;
34481;SDS011;20720;48.886;9.388;2023-10-13T07:19:30;19.58;;;8.45;;
34481;SDS011;20720;48.886;9.388;2023-10-13T07:21:57;17.52;;;7.00;;
34481;SDS011;20720;48.886;9.388;2023-10-13T07:24:24;12.98;;;6.88;;
34481;SDS011;20720;48.886;9.388;2023-10-13T07:26:52;13.02;;;5.97;;
34481;SDS011;20720;48.886;9.388;2023-10-13T07:29:27;12.70;;;6.18;;
34481;SDS011;20720;48.886;9.388;2023-10-13T07:31:52;13.70;;;6.15;;
34481;SDS011;20720;48.886;9.388;2023-10-13T07:34:18;11.05;;;5.82;;
34481;SDS011;20720;48.886;9.388;2023-10-13T07:36:51;10.60;;;6.00;;
34481;SDS011;20720;48.886;9.388;2023-10-13T07:39:17;15.45;;;5.25;;
34481;SDS011;20720;48.886;9.388;2023-10-13T07:41:49;11.77;;;4.93;;
34481;SDS011;20720;48.886;9.388;2023-10-13T07:44:23;11.05;;;4.22;;
34481;SDS011;20720;48.886;9.388;2023-10-13T07:46:53;11.88;;;4.47;;
34481;SDS011;20720;48.886;9.388;2023-10-13T07:49:28;10.98;;;4.25;;
34481;SDS011;20720;48.886;9.388;2023-10-13T07:52:00;9.95;;;3.95;;
34481;SDS011;20720;48.886;9.388;2023-10-13T07:54:41;7.18;;;3.83;;
34481;SDS011;20720;48.886;9.388;2023-10-13T07:59:39;8.23;;;3.47;;
34481;SDS011;20720;48.886;9.388;2023-10-13T08:02:12;10.57;;;3.88;;
34481;SDS011;20720;48.886;9.388;2023-10-13T08:04:40;10.18;;;3.30;;
34481;SDS011;20720;48.886;9.388;2023-10-13T08:07:05;6.53;;;2.90;;
34481;SDS011;20720;48.886;9.388;2023-10-13T08:09:38;5.88;;;3.28;;
34481;SDS011;20720;48.886;9.388;2023-10-13T08:12:16;9.13;;;3.40;;
34481;SDS011;20720;48.886;9.388;2023-10-13T08:14:46;10.93;;;2.92;;
34481;SDS011;20720;48.886;9.388;2023-10-13T08:17:11;7.68;;;2.72;;
34481;SDS011;20720;48.886;9.388;2023-10-13T08:19:37;6.55;;;2.85;;
34481;SDS011;20720;48.886;9.388;2023-10-13T08:22:13;5.90;;;2.65;;
34481;SDS011;20720;48.886;9.388;2023-10-13T08:24:45;9.45;;;3.20;;
34481;SDS011;20720;48.886;9.388;2023-10-13T08:27:12;9.55;;;3.00;;
34481;SDS011;20720;48.886;9.388;2023-10-13T08:29:57;8.02;;;2.88;;
34481;SDS011;20720;48.886;9.388;2023-10-13T08:32:23;6.22;;;2.63;;
34481;SDS011;20720;48.886;9.388;2023-10-13T08:34:52;8.40;;;3.03;;
34481;SDS011;20720;48.886;9.388;2023-10-13T08:37:18;12.45;;;2.90;;
34481;SDS011;20720;48.886;9.388;2023-10-13T08:39:54;6.43;;;2.70;;
34481;SDS011;20720;48.886;9.388;2023-10-13T08:42:31;7.03;;;2.80;;
34481;SDS011;20720;48.886;9.388;2023-10-13T08:45:21;8.20;;;2.47;;
34481;SDS011;20720;48.886;9.388;2023-10-13T08:50:32;10.05;;;3.00;;
34481;SDS011;20720;48.886;9.388;2023-10-13T08:53:27;6.00;;;3.22;;
34481;SDS011;20720;48.886;9.388;2023-10-13T08:55:57;9.95;;;2.40;;
34481;SDS011;20720;48.886;9.388;2023-10-13T08:58:39;6.27;;;2.60;;
34481;SDS011;20720;48.886;9.388;2023-10-13T09:01:23;7.50;;;2.35;;
34481;SDS011;20720;48.886;9.388;2023-10-13T09:04:08;9.65;;;2.47;;
34481;SDS011;20720;48.886;9.388;2023-10-13T09:06:57;6.28;;;2.80;;
34481;SDS011;20720;48.886;9.388;2023-10-13T09:09:50;7.38;;;2.70;;
34481;SDS011;20720;48.886;9.388;2023-10-13T09:12:23;9.52;;;2.63;;
34481;SDS011;20720;48.886;9.388;2023-10-13T09:15:01;6.43;;;2.38;;
34481;SDS011;20720;48.886;9.388;2023-10-13T09:17:41;9.38;;;2.88;;
34481;SDS011;20720;48.886;9.388;2023-10-13T09:20:15;7.38;;;2.20;;
34481;SDS011;20720;48.886;9.388;2023-10-13T09:22:53;9.00;;;2.50;;
34481;SDS011;20720;48.886;9.388;2023-10-13T09:25:31;6.25;;;2.30;;
34481;SDS011;20720;48.886;9.388;2023-10-13T09:30:43;8.30;;;2.10;;
34481;SDS011;20720;48.886;9.388;2023-10-13T09:33:09;7.00;;;2.45;;
34481;SDS011;20720;48.886;9.388;2023-10-13T09:35:40;8.00;;;2.50;;
34481;SDS011;20720;48.886;9.388;2023-10-13T09:38:08;5.97;;;2.55;;
34481;SDS011;20720;48.886;9.388;2023-10-13T09:40:36;8.45;;;2.30;;
34481;SDS011;20720;48.886;9.388;2023-10-13T09:43:11;7.25;;;2.42;;
34481;SDS011;20720;48.886;9.388;2023-10-13T09:45:39;9.00;;;2.50;;
34481;SDS011;20720;48.886;9.388;2023-10-13T09:48:21;6.93;;;2.70;;
34481;SDS011;20720;48.886;9.388;2023-10-13T09:50:53;8.88;;;2.80;;
34481;SDS011;20720;48.886;9.388;2023-10-13T09:53:24;8.68;;;2.40;;
34481;SDS011;20720;48.886;9.388;2023-10-13T09:55:51;8.13;;;2.47;;
34481;SDS011;20720;48.886;9.388;2023-10-13T09:58:26;5.40;;;2.45;;
34481;SDS011;20720;48.886;9.388;2023-10-13T10:01:01;7.53;;;2.45;;
34481;SDS011;20720;48.886;9.388;2023-10-13T10:03:43;7.28;;;2.40;;
34481;SDS011;20720;48.886;9.388;2023-10-13T10:06:22;6.28;;;2.50;;
34481;SDS011;20720;48.886;9.388;2023-10-13T10:08:59;6.97;;;2.78;;
34481;SDS011;20720;48.886;9.388;2023-10-13T10:11:48;5.85;;;2.63;;
34481;SDS011;20720;48.886;9.388;2023-10-13T10:14:24;6.20;;;2.67;;
34481;SDS011;20720;48.886;9.388;2023-10-13T10:17:06;5.88;;;2.45;;
34481;SDS011;20720;48.886;9.388;2023-10-13T10:19:33;8.00;;;2.67;;
34481;SDS011;20720;48.886;9.388;2023-10-13T10:22:02;8.20;;;2.78;;
34481;SDS011;20720;48.886;9.388;2023-10-13T10:24:43;4.53;;;2.30;;
34481;SDS011;20720;48.886;9.388;2023-10-13T10:27:09;6.07;;;2.30;;
34481;SDS011;20720;48.886;9.388;2023-10-13T10:29:39;9.02;;;2.50;;
34481;SDS011;20720;48.886;9.388;2023-10-13T10:32:15;7.75;;;2.80;;
34481;SDS011;20720;48.886;9.388;2023-10-13T10:34:40;7.60;;;2.38;;
34481;SDS011;20720;48.886;9.388;2023-10-13T10:37:06;7.30;;;2.67;;
34481;SDS011;20720;48.886;9.388;2023-10-13T10:39:34;10.63;;;2.50;;
34481;SDS011;20720;48.886;9.388;2023-10-13T10:42:10;5.75;;;2.47;;
34481;SDS011;20720;48.886;9.388;2023-10-13T10:45:08;6.45;;;2.80;;
34481;SDS011;20720;48.886;9.388;2023-10-13T10:47:36;6.65;;;3.25;;
34481;SDS011;20720;48.886;9.388;2023-10-13T10:50:03;7.80;;;2.70;;
34481;SDS011;20720;48.886;9.388;2023-10-13T10:52:55;6.47;;;2.53;;
34481;SDS011;20720;48.886;9.388;2023-10-13T10:55:22;5.88;;;2.70;;
34481;SDS011;20720;48.886;9.388;2023-10-13T10:57:59;7.30;;;2.50;;
34481;SDS011;20720;48.886;9.388;2023-10-13T11:00:31;7.68;;;2.40;;
34481;SDS011;20720;48.886;9.388;2023-10-13T11:03:10;7.88;;;2.50;;
34481;SDS011;20720;48.886;9.388;2023-10-13T11:05:43;5.93;;;2.38;;
34481;SDS011;20720;48.886;9.388;2023-10-13T11:08:21;6.00;;;2.60;;
34481;SDS011;20720;48.886;9.388;2023-10-13T11:10:56;6.40;;;2.47;;
34481;SDS011;20720;48.886;9.388;2023-10-13T11:13:21;5.13;;;2.42;;
34481;SDS011;20720;48.886;9.388;2023-10-13T11:15:47;7.10;;;2.50;;
34481;SDS011;20720;48.886;9.388;2023-10-13T11:18:13;8.68;;;2.40;;
34481;SDS011;20720;48.886;9.388;2023-10-13T11:20:46;6.47;;;2.20;;
34481;SDS011;20720;48.886;9.388;2023-10-13T11:23:15;6.85;;;2.50;;
34481;SDS011;20720;48.886;9.388;2023-10-13T11:25:40;8.02;;;2.70;;
34481;SDS011;20720;48.886;9.388;2023-10-13T11:30:44;7.50;;;2.60;;
34481;SDS011;20720;48.886;9.388;2023-10-13T11:33:17;4.47;;;2.00;;
34481;SDS011;20720;48.886;9.388;2023-10-13T11:35:43;6.95;;;2.83;;
34481;SDS011;20720;48.886;9.388;2023-10-13T11:38:19;6.07;;;2.05;;
34481;SDS011;20720;48.886;9.388;2023-10-13T11:41:00;5.95;;;2.45;;
34481;SDS011;20720;48.886;9.388;2023-10-13T11:43:30;5.82;;;2.03;;
34481;SDS011;20720;48.886;9.388;2023-10-13T11:46:00;5.15;;;1.98;;
34481;SDS011;20720;48.886;9.388;2023-10-13T11:48:38;8.40;;;2.22;;
34481;SDS011;20720;48.886;9.388;2023-10-13T11:51:07;5.55;;;2.15;;
34481;SDS011;20720;48.886;9.388;2023-10-13T11:56:03;5.15;;;2.13;;
34481;SDS011;20720;48.886;9.388;2023-10-13T11:58:34;6.55;;;2.42;;
34481;SDS011;20720;48.886;9.388;2023-10-13T12:01:03;5.28;;;2.38;;
34481;SDS011;20720;48.886;9.388;2023-10-13T12:03:39;5.32;;;2.25;;
34481;SDS011;20720;48.886;9.388;2023-10-13T12:06:23;9.05;;;2.78;;
34481;SDS011;20720;48.886;9.388;2023-10-13T12:09:00;5.93;;;2.25;;
34481;SDS011;20720;48.886;9.388;2023-10-13T12:11:56;4.82;;;2.40;;
34481;SDS011;20720;48.886;9.388;2023-10-13T12:14:25;5.47;;;2.13;;
34481;SDS011;20720;48.886;9.388;2023-10-13T12:16:54;4.57;;;2.20;;
34481;SDS011;20720;48.886;9.388;2023-10-13T12:19:21;4.57;;;2.08;;
34481;SDS011;20720;48.886;9.388;2023-10-13T12:21:50;3.85;;;2.13;;
34481;SDS011;20720;48.886;9.388;2023-10-13T12:24:19;7.38;;;2.13;;
34481;SDS011;20720;48.886;9.388;2023-10-13T12:26:56;6.72;;;2.25;;
34481;SDS011;20720;48.886;9.388;2023-10-13T12:29:25;4.13;;;2.30;;
34481;SDS011;20720;48.886;9.388;2023-10-13T12:31:54;5.57;;;2.25;;
34481;SDS011;20720;48.886;9.388;2023-10-13T12:34:46;5.65;;;2.00;;
34481;SDS011;20720;48.886;9.388;2023-10-13T12:37:27;7.43;;;2.25;;
34481;SDS011;20720;48.886;9.388;2023-10-13T12:40:06;8.50;;;2.65;;
34481;SDS011;20720;48.886;9.388;2023-10-13T12:42:52;7.30;;;2.17;;
34481;SDS011;20720;48.886;9.388;2023-10-13T12:45:42;8.48;;;2.40;;
34481;SDS011;20720;48.886;9.388;2023-10-13T12:48:27;8.52;;;2.40;;
34481;SDS011;20720;48.886;9.388;2023-10-13T12:51:12;4.72;;;2.08;;
34481;SDS011;20720;48.886;9.388;2023-10-13T12:53:53;5.15;;;2.17;;
34481;SDS011;20720;48.886;9.388;2023-10-13T12:56:19;5.53;;;2.47;;
34481;SDS011;20720;48.886;9.388;2023-10-13T12:58:54;4.15;;;1.83;;
34481;SDS011;20720;48.886;9.388;2023-10-13T13:01:22;7.85;;;2.40;;
34481;SDS011;20720;48.886;9.388;2023-10-13T13:03:50;5.35;;;2.30;;
34481;SDS011;20720;48.886;9.388;2023-10-13T13:06:20;5.47;;;2.10;;
34481;SDS011;20720;48.886;9.388;2023-10-13T13:08:50;5.97;;;1.90;;
34481;SDS011;20720;48.886;9.388;2023-10-13T13:11:19;4.10;;;2.05;;
34481;SDS011;20720;48.886;9.388;2023-10-13T13:13:45;7.70;;;2.53;;
34481;SDS011;20720;48.886;9.388;2023-10-13T13:16:13;6.57;;;2.42;;
34481;SDS011;20720;48.886;9.388;2023-10-13T13:18:39;4.57;;;1.92;;
34481;SDS011;20720;48.886;9.388;2023-10-13T13:21:05;7.35;;;2.08;;
34481;SDS011;20720;48.886;9.388;2023-10-13T13:23:37;5.32;;;2.10;;
34481;SDS011;20720;48.886;9.388;2023-10-13T13:26:05;3.97;;;2.03;;
34481;SDS011;20720;48.886;9.388;2023-10-13T13:28:40;5.47;;;2.50;;
34481;SDS011;20720;48.886;9.388;2023-10-13T13:31:06;8.63;;;2.38;;
34481;SDS011;20720;48.886;9.388;2023-10-13T13:33:33;6.57;;;2.30;;
34481;SDS011;20720;48.886;9.388;2023-10-13T13:36:03;9.15;;;3.30;;
34481;SDS011;20720;48.886;9.388;2023-10-13T13:38:29;6.35;;;2.55;;
34481;SDS011;20720;48.886;9.388;2023-10-13T13:40:57;7.38;;;2.40;;
34481;SDS011;20720;48.886;9.388;2023-10-13T13:43:23;7.40;;;2.33;;
34481;SDS011;20720;48.886;9.388;2023-10-13T13:46:06;4.28;;;1.83;;
34481;SDS011;20720;48.886;9.388;2023-10-13T13:48:36;6.50;;;1.80;;
34481;SDS011;20720;48.886;9.388;2023-10-13T13:51:03;5.43;;;2.10;;
34481;SDS011;20720;48.886;9.388;2023-10-13T13:53:44;9.05;;;2.60;;
34481;SDS011;20720;48.886;9.388;2023-10-13T13:56:10;6.70;;;2.28;;
34481;SDS011;20720;48.886;9.388;2023-10-13T13:58:46;6.95;;;2.28;;
34481;SDS011;20720;48.886;9.388;2023-10-13T14:01:13;4.63;;;1.98;;
34481;SDS011;20720;48.886;9.388;2023-10-13T14:03:46;3.80;;;1.92;;
34481;SDS011;20720;48.886;9.388;2023-10-13T14:06:15;4.85;;;2.30;;
34481;SDS011;20720;48.886;9.388;2023-10-13T14:08:49;5.88;;;2.30;;
34481;SDS011;20720;48.886;9.388;2023-10-13T14:11:16;5.05;;;2.15;;
34481;SDS011;20720;48.886;9.388;2023-10-13T14:14:01;7.63;;;2.30;;
34481;SDS011;20720;48.886;9.388;2023-10-13T14:16:29;4.32;;;2.05;;
34481;SDS011;20720;48.886;9.388;2023-10-13T14:18:54;4.95;;;2.00;;
34481;SDS011;20720;48.886;9.388;2023-10-13T14:21:19;8.07;;;2.03;;
34481;SDS011;20720;48.886;9.388;2023-10-13T14:23:49;6.15;;;1.90;;
34481;SDS011;20720;48.886;9.388;2023-10-13T14:26:16;6.60;;;1.90;;
34481;SDS011;20720;48.886;9.388;2023-10-13T14:28:45;6.63;;;2.05;;
34481;SDS011;20720;48.886;9.388;2023-10-13T14:31:26;5.28;;;2.20;;
34481;SDS011;20720;48.886;9.388;2023-10-13T14:33:52;6.93;;;1.88;;
34481;SDS011;20720;48.886;9.388;2023-10-13T14:36:18;8.85;;;2.15;;
34481;SDS011;20720;48.886;9.388;2023-10-13T14:38:45;6.80;;;2.17;;
34481;SDS011;20720;48.886;9.388;2023-10-13T14:41:14;6.75;;;1.98;;
34481;SDS011;20720;48.886;9.388;2023-10-13T14:43:43;8.73;;;2.20;;
34481;SDS011;20720;48.886;9.388;2023-10-13T14:46:15;7.82;;;2.30;;
34481;SDS011;20720;48.886;9.388;2023-10-13T14:48:42;4.80;;;2.30;;
34481;SDS011;20720;48.886;9.388;2023-10-13T14:51:09;5.82;;;2.53;;
34481;SDS011;20720;48.886;9.388;2023-10-13T14:53:35;6.63;;;2.58;;
34481;SDS011;20720;48.886;9.388;2023-10-13T14:56:00;4.40;;;1.98;;
34481;SDS011;20720;48.886;9.388;2023-10-13T14:58:27;4.78;;;1.98;;
34481;SDS011;20720;48.886;9.388;2023-10-13T15:00:52;5.10;;;2.05;;
34481;SDS011;20720;48.886;9.388;2023-10-13T15:03:17;3.90;;;1.70;;
34481;SDS011;20720;48.886;9.388;2023-10-13T15:05:43;5.03;;;1.95;;
34481;SDS011;20720;48.886;9.388;2023-10-13T15:08:11;7.72;;;2.60;;
34481;SDS011;20720;48.886;9.388;2023-10-13T15:10:37;4.90;;;2.22;;
34481;SDS011;20720;48.886;9.388;2023-10-13T15:13:03;5.78;;;2.05;;
34481;SDS011;20720;48.886;9.388;2023-10-13T15:15:30;2.90;;;1.80;;
34481;SDS011;20720;48.886;9.388;2023-10-13T15:17:57;5.85;;;2.30;;
34481;SDS011;20720;48.886;9.388;2023-10-13T15:20:23;4.43;;;1.90;;
34481;SDS011;20720;48.886;9.388;2023-10-13T15:22:48;6.60;;;1.90;;
34481;SDS011;20720;48.886;9.388;2023-10-13T15:25:13;7.22;;;2.13;;
34481;SDS011;20720;48.886;9.388;2023-10-13T15:28:00;3.83;;;2.20;;
34481;SDS011;20720;48.886;9.388;2023-10-13T15:30:33;7.45;;;2.47;;
34481;SDS011;20720;48.886;9.388;2023-10-13T15:33:20;3.38;;;1.92;;
34481;SDS011;20720;48.886;9.388;2023-10-13T15:35:46;3.35;;;1.88;;
34481;SDS011;20720;48.886;9.388;2023-10-13T15:38:11;4.00;;;1.73;;
34481;SDS011;20720;48.886;9.388;2023-10-13T15:40:43;4.15;;;1.70;;
34481;SDS011;20720;48.886;9.388;2023-10-13T15:43:09;4.00;;;1.70;;